Pb Newjersey #2 — WAS8517 — position and weather

sailwx.info

Track history (hours):
 
Tides and Currents Weather Stations Pressure Air Temp Water Temp Dewpoint Dewpoint Depression Visibility Wind Speed Wind Dir Waves Ship Positions

Pb Newjersey #2

Last reported at 2018-Jul-20 13:03 UTC. Time now 2018-Jul-21 07:49 UTC.
Position N 40°28' W 073°49'.

Length 42 m.

Type: Pilot. MMSI: 367008110.

Date/timePositionNaut miles runAvg speedWind from/ knotsBaromVisibWave heightAir tempDewpointWater temp
2018-Jul-20 13:03N 40°28' W 073°49'0 2.3
2018-Jul-20 12:59N 40°28' W 073°49'0 0.1
2018-Jul-20 12:30N 40°28' W 073°49'0 0.2
2018-Jul-20 11:59N 40°28' W 073°49'0 0.2
2018-Jul-20 11:30N 40°28' W 073°49'0 0.9
2018-Jul-20 11:00N 40°27' W 073°49'1 1.0
2018-Jul-20 10:25N 40°27' W 073°50'1 3.1
2018-Jul-20 10:00N 40°26' W 073°49'1 1.4
2018-Jul-20 09:30N 40°27' W 073°49'0 0.2
2018-Jul-20 09:00N 40°27' W 073°49'0 0.2
2018-Jul-20 08:30N 40°26' W 073°49'1 1.5
2018-Jul-20 08:01N 40°26' W 073°48'0 0.7
2018-Jul-20 07:30N 40°26' W 073°48'0 0.3
2018-Jul-20 07:00N 40°26' W 073°49'1 1.3
2018-Jul-20 06:31N 40°27' W 073°49'1 1.0
2018-Jul-20 06:00N 40°26' W 073°48'0 0.7
2018-Jul-20 05:30N 40°27' W 073°49'1 1.1
2018-Jul-20 05:00N 40°27' W 073°49'1 1.0
2018-Jul-20 04:30N 40°27' W 073°49'0 0.4
2018-Jul-20 04:00N 40°26' W 073°49'0 0.4
2018-Jul-20 03:30N 40°27' W 073°49'1 2.9
2018-Jul-20 03:00N 40°27' W 073°51'1 1.3
2018-Jul-20 02:31N 40°27' W 073°50'0 0.3
2018-Jul-20 01:52N 40°27' W 073°50'0 0.0
2018-Jul-20 01:28N 40°27' W 073°50'  
2018-Jul-16 12:06N 40°27' W 073°48'0 0.5
2018-Jul-16 11:48N 40°27' W 073°48'1 2.1
2018-Jul-16 11:30N 40°27' W 073°49'2 1.0
2018-Jul-16 09:50N 40°27' W 073°51'2 0.3
2018-Jul-16 04:03N 40°28' W 073°49'1 0.0
2018-Jul-14 19:39N 40°27' W 073°49'1 0.1
2018-Jul-14 11:55N 40°27' W 073°51'0 0.7
2018-Jul-14 11:29N 40°27' W 073°50'0 0.5
2018-Jul-14 11:00N 40°27' W 073°50'0 0.6
2018-Jul-14 10:30N 40°27' W 073°50'2 4.6
2018-Jul-14 10:01N 40°28' W 073°53'3 5.3
2018-Jul-14 09:30N 40°27' W 073°50'0 0.2
2018-Jul-14 09:00N 40°27' W 073°50'2 3.1
2018-Jul-14 08:31N 40°26' W 073°48'1 1.6
2018-Jul-14 08:01N 40°26' W 073°47'0 0.7
2018-Jul-14 07:30N 40°26' W 073°47'0 0.8
2018-Jul-14 07:00N 40°26' W 073°48'0 0.9
2018-Jul-14 06:30N 40°26' W 073°49'0 0.6
2018-Jul-14 06:01N 40°26' W 073°48'0 0.3
2018-Jul-14 05:30N 40°26' W 073°49'1 2.6
2018-Jul-14 05:01N 40°27' W 073°50'2 3.5
2018-Jul-14 04:25N 40°28' W 073°47'0 0.8
2018-Jul-14 04:00N 40°28' W 073°48'0 0.8
2018-Jul-14 03:30N 40°28' W 073°48'1 1.0
2018-Jul-14 02:50N 40°27' W 073°49'1 0.2
2018-Jul-13 20:50N 40°27' W 073°51'0 0.1
2018-Jul-13 20:30N 40°27' W 073°51'1 0.2
2018-Jul-13 17:02N 40°27' W 073°50'0 0.4
2018-Jul-13 17:00N 40°27' W 073°50'0 0.2
2018-Jul-13 15:11N 40°27' W 073°49'0 0.4
2018-Jul-13 14:56N 40°27' W 073°49'0 0.3
2018-Jul-13 13:24N 40°27' W 073°50'0 0.4
2018-Jul-13 12:38N 40°27' W 073°50'0 0.3
2018-Jul-13 12:30N 40°27' W 073°50'0 0.9
2018-Jul-13 12:00N 40°27' W 073°49'1 1.7
2018-Jul-13 11:30N 40°27' W 073°50'1 1.1
2018-Jul-13 11:00N 40°27' W 073°50'1 2.1
2018-Jul-13 10:31N 40°27' W 073°51'0 0.5
2018-Jul-13 10:00N 40°27' W 073°51'0 0.6
2018-Jul-13 09:30N 40°27' W 073°51'0 0.6
2018-Jul-13 09:01N 40°27' W 073°51'0 0.5
2018-Jul-13 08:30N 40°27' W 073°50'1 2.5
2018-Jul-13 08:01N 40°27' W 073°49'1 1.8
2018-Jul-13 07:30N 40°26' W 073°48'0 0.2
2018-Jul-13 07:01N 40°26' W 073°48'0 0.8
2018-Jul-13 06:31N 40°26' W 073°48'0 0.9
2018-Jul-13 06:01N 40°26' W 073°48'0 0.8
2018-Jul-13 05:30N 40°26' W 073°48'0 0.8
2018-Jul-13 05:01N 40°26' W 073°48'1 1.3
2018-Jul-13 04:31N 40°26' W 073°48'2 4.0
2018-Jul-13 04:01N 40°27' W 073°50'0 0.6
2018-Jul-13 03:31N 40°27' W 073°51'1 2.1
2018-Jul-13 02:59N 40°27' W 073°50'0 1.0
2018-Jul-13 02:30N 40°27' W 073°50'1 0.1
2018-Jul-12 10:33N 40°27' W 073°48'2 5.4
2018-Jul-12 10:15N 40°27' W 073°51'2 2.1
2018-Jul-12 09:20N 40°26' W 073°48'0 0.5
2018-Jul-12 09:00N 40°26' W 073°48'0 0.3
2018-Jul-12 08:17N 40°26' W 073°48'0 0.2
2018-Jul-12 07:59N 40°26' W 073°48'0 0.4
2018-Jul-12 07:28N 40°26' W 073°48'0 0.4
2018-Jul-12 07:00N 40°26' W 073°48'2 3.3
2018-Jul-12 06:30N 40°27' W 073°50'0 0.0
2018-Jul-11 11:33N 40°27' W 073°50'0 0.4
2018-Jul-11 11:30N 40°27' W 073°50'0 0.2
2018-Jul-11 10:56N 40°27' W 073°50'510.7
2018-Jul-11 10:28N 40°30' W 073°56'5 4.4
2018-Jul-11 09:23N 40°27' W 073°50'1 0.1
2018-Jul-10 22:29N 40°26' W 073°49'  
Track history (hours):
 
Tides and Currents Weather Stations Pressure Air Temp Water Temp Dewpoint Dewpoint Depression Visibility Wind Speed Wind Dir Waves Ship Positions

Pb Newjersey #2

Last reported at 2018-Jul-20 13:03 UTC. Time now 2018-Jul-21 07:49 UTC.
Position N 40°28' W 073°49'.

Length 42 m.

Type: Pilot. MMSI: 367008110.

Date/timePositionNaut miles runAvg speedWind from/ knotsBaromVisibWave heightAir tempDewpointWater temp
2018-Jul-20 13:03N 40°28' W 073°49'0 2.3
2018-Jul-20 12:59N 40°28' W 073°49'0 0.1
2018-Jul-20 12:30N 40°28' W 073°49'0 0.2
2018-Jul-20 11:59N 40°28' W 073°49'0 0.2
2018-Jul-20 11:30N 40°28' W 073°49'0 0.9
2018-Jul-20 11:00N 40°27' W 073°49'1 1.0
2018-Jul-20 10:25N 40°27' W 073°50'1 3.1
2018-Jul-20 10:00N 40°26' W 073°49'1 1.4
2018-Jul-20 09:30N 40°27' W 073°49'0 0.2
2018-Jul-20 09:00N 40°27' W 073°49'0 0.2
2018-Jul-20 08:30N 40°26' W 073°49'1 1.5
2018-Jul-20 08:01N 40°26' W 073°48'0 0.7
2018-Jul-20 07:30N 40°26' W 073°48'0 0.3
2018-Jul-20 07:00N 40°26' W 073°49'1 1.3
2018-Jul-20 06:31N 40°27' W 073°49'1 1.0
2018-Jul-20 06:00N 40°26' W 073°48'0 0.7
2018-Jul-20 05:30N 40°27' W 073°49'1 1.1
2018-Jul-20 05:00N 40°27' W 073°49'1 1.0
2018-Jul-20 04:30N 40°27' W 073°49'0 0.4
2018-Jul-20 04:00N 40°26' W 073°49'0 0.4
2018-Jul-20 03:30N 40°27' W 073°49'1 2.9
2018-Jul-20 03:00N 40°27' W 073°51'1 1.3
2018-Jul-20 02:31N 40°27' W 073°50'0 0.3
2018-Jul-20 01:52N 40°27' W 073°50'0 0.0
2018-Jul-20 01:28N 40°27' W 073°50'  
2018-Jul-16 12:06N 40°27' W 073°48'0 0.5
2018-Jul-16 11:48N 40°27' W 073°48'1 2.1
2018-Jul-16 11:30N 40°27' W 073°49'2 1.0
2018-Jul-16 09:50N 40°27' W 073°51'2 0.3
2018-Jul-16 04:03N 40°28' W 073°49'1 0.0
2018-Jul-14 19:39N 40°27' W 073°49'1 0.1
2018-Jul-14 11:55N 40°27' W 073°51'0 0.7
2018-Jul-14 11:29N 40°27' W 073°50'0 0.5
2018-Jul-14 11:00N 40°27' W 073°50'0 0.6
2018-Jul-14 10:30N 40°27' W 073°50'2 4.6
2018-Jul-14 10:01N 40°28' W 073°53'3 5.3
2018-Jul-14 09:30N 40°27' W 073°50'0 0.2
2018-Jul-14 09:00N 40°27' W 073°50'2 3.1
2018-Jul-14 08:31N 40°26' W 073°48'1 1.6
2018-Jul-14 08:01N 40°26' W 073°47'0 0.7
2018-Jul-14 07:30N 40°26' W 073°47'0 0.8
2018-Jul-14 07:00N 40°26' W 073°48'0 0.9
2018-Jul-14 06:30N 40°26' W 073°49'0 0.6
2018-Jul-14 06:01N 40°26' W 073°48'0 0.3
2018-Jul-14 05:30N 40°26' W 073°49'1 2.6
2018-Jul-14 05:01N 40°27' W 073°50'2 3.5
2018-Jul-14 04:25N 40°28' W 073°47'0 0.8
2018-Jul-14 04:00N 40°28' W 073°48'0 0.8
2018-Jul-14 03:30N 40°28' W 073°48'1 1.0
2018-Jul-14 02:50N 40°27' W 073°49'1 0.2
2018-Jul-13 20:50N 40°27' W 073°51'0 0.1
2018-Jul-13 20:30N 40°27' W 073°51'1 0.2
2018-Jul-13 17:02N 40°27' W 073°50'0 0.4
2018-Jul-13 17:00N 40°27' W 073°50'0 0.2
2018-Jul-13 15:11N 40°27' W 073°49'0 0.4
2018-Jul-13 14:56N 40°27' W 073°49'0 0.3
2018-Jul-13 13:24N 40°27' W 073°50'0 0.4
2018-Jul-13 12:38N 40°27' W 073°50'0 0.3
2018-Jul-13 12:30N 40°27' W 073°50'0 0.9
2018-Jul-13 12:00N 40°27' W 073°49'1 1.7
2018-Jul-13 11:30N 40°27' W 073°50'1 1.1
2018-Jul-13 11:00N 40°27' W 073°50'1 2.1
2018-Jul-13 10:31N 40°27' W 073°51'0 0.5
2018-Jul-13 10:00N 40°27' W 073°51'0 0.6
2018-Jul-13 09:30N 40°27' W 073°51'0 0.6
2018-Jul-13 09:01N 40°27' W 073°51'0 0.5
2018-Jul-13 08:30N 40°27' W 073°50'1 2.5
2018-Jul-13 08:01N 40°27' W 073°49'1 1.8
2018-Jul-13 07:30N 40°26' W 073°48'0 0.2
2018-Jul-13 07:01N 40°26' W 073°48'0 0.8
2018-Jul-13 06:31N 40°26' W 073°48'0 0.9
2018-Jul-13 06:01N 40°26' W 073°48'0 0.8
2018-Jul-13 05:30N 40°26' W 073°48'0 0.8
2018-Jul-13 05:01N 40°26' W 073°48'1 1.3
2018-Jul-13 04:31N 40°26' W 073°48'2 4.0
2018-Jul-13 04:01N 40°27' W 073°50'0 0.6
2018-Jul-13 03:31N 40°27' W 073°51'1 2.1
2018-Jul-13 02:59N 40°27' W 073°50'0 1.0
2018-Jul-13 02:30N 40°27' W 073°50'1 0.1
2018-Jul-12 10:33N 40°27' W 073°48'2 5.4
2018-Jul-12 10:15N 40°27' W 073°51'2 2.1
2018-Jul-12 09:20N 40°26' W 073°48'0 0.5
2018-Jul-12 09:00N 40°26' W 073°48'0 0.3
2018-Jul-12 08:17N 40°26' W 073°48'0 0.2
2018-Jul-12 07:59N 40°26' W 073°48'0 0.4
2018-Jul-12 07:28N 40°26' W 073°48'0 0.4
2018-Jul-12 07:00N 40°26' W 073°48'2 3.3
2018-Jul-12 06:30N 40°27' W 073°50'0 0.0
2018-Jul-11 11:33N 40°27' W 073°50'0 0.4
2018-Jul-11 11:30N 40°27' W 073°50'0 0.2
2018-Jul-11 10:56N 40°27' W 073°50'510.7
2018-Jul-11 10:28N 40°30' W 073°56'5 4.4
2018-Jul-11 09:23N 40°27' W 073°50'1 0.1
2018-Jul-10 22:29N 40°26' W 073°49'  

Dump ship's entire track history